Time;durP1;ratioP1;P1;durP2;ratioP2;P2;SDS_P1;SDS_P2;PMS_P1;PMS_P2;Temp;Humidity;BMP_temperature;BMP_pressure;BME280_temperature;BME280_humidity;BME280_pressure;Samples;Min_cycle;Max_cycle;Signal;HPM_P1;HPM_P2
2021/09/21 00:00:10;;;;;;;14.10;10.20;;;;;;;10.14;100.00;96431.13;1034139;28;20041;-64
2021/09/21 00:00:40;;;;;;;11.75;9.75;;;;;;;10.12;100.00;96425.34;1030971;28;20300;-63
2021/09/21 00:01:14;;;;;;;14.55;10.60;;;;;;;10.11;100.00;96429.00;1029621;28;20026;-63
2021/09/21 00:01:44;;;;;;;12.23;9.93;;;;;;;10.11;100.00;96423.75;1030220;28;20265;-63
2021/09/21 00:02:14;;;;;;;14.85;10.35;;;;;;;10.10;100.00;96429.25;1026412;28;20038;-63
2021/09/21 00:02:45;;;;;;;12.50;10.88;;;;;;;10.06;100.00;96420.25;1029023;28;20042;-63
2021/09/21 00:03:16;;;;;;;13.38;10.35;;;;;;;10.05;100.00;96423.94;1029764;28;20133;-64
2021/09/21 00:03:46;;;;;;;12.68;10.18;;;;;;;9.99;100.00;96411.78;1030551;28;20046;-64
2021/09/21 00:04:17;;;;;;;12.82;10.40;;;;;;;10.04;100.00;96425.75;1029994;28;20049;-64
2021/09/21 00:04:48;;;;;;;11.90;10.30;;;;;;;10.02;100.00;96422.56;1026441;28;20034;-64
2021/09/21 00:05:18;;;;;;;12.80;10.15;;;;;;;10.02;100.00;96429.66;1025766;28;20262;-64
2021/09/21 00:05:49;;;;;;;13.32;11.38;;;;;;;10.00;100.00;96424.66;1026677;28;20186;-64
2021/09/21 00:06:19;;;;;;;13.55;11.23;;;;;;;9.99;100.00;96428.31;1028143;28;20026;-64
2021/09/21 00:06:49;;;;;;;13.98;10.52;;;;;;;9.82;100.00;96406.56;1030891;28;20041;-64
2021/09/21 00:07:20;;;;;;;14.70;10.82;;;;;;;9.95;100.00;96424.56;1033996;28;20025;-63
2021/09/21 00:07:50;;;;;;;13.50;10.18;;;;;;;9.89;100.00;96417.66;1026410;28;20031;-63
2021/09/21 00:08:21;;;;;;;13.00;10.23;;;;;;;9.87;100.00;96420.53;1022291;28;20506;-64
2021/09/21 00:08:51;;;;;;;20.17;10.85;;;;;;;9.91;100.00;96429.50;1022256;28;20034;-64
2021/09/21 00:09:22;;;;;;;14.15;10.60;;;;;;;9.83;100.00;96411.59;1024963;28;20026;-64
2021/09/21 00:09:52;;;;;;;12.60;10.57;;;;;;;9.91;100.00;96428.72;1026701;28;20523;-64
2021/09/21 00:10:23;;;;;;;13.40;10.77;;;;;;;9.73;100.00;96403.56;1026631;28;20031;-63
2021/09/21 00:10:57;;;;;;;12.13;10.32;;;;;;;9.85;100.00;96425.22;1028705;28;20034;-65
2021/09/21 00:11:27;;;;;;;14.27;10.88;;;;;;;9.86;100.00;96426.03;1021486;28;20027;-64
2021/09/21 00:11:58;;;;;;;16.77;12.05;;;;;;;9.85;100.00;96427.06;1023526;28;20274;-64
2021/09/21 00:12:28;;;;;;;16.95;11.45;;;;;;;9.77;100.00;96420.41;1033172;28;20081;-65
2021/09/21 00:12:59;;;;;;;14.93;10.93;;;;;;;9.77;100.00;96422.22;1030451;28;20407;-63
2021/09/21 00:13:29;;;;;;;14.30;10.80;;;;;;;9.79;100.00;96426.22;1038161;28;20029;-64
2021/09/21 00:14:01;;;;;;;13.60;10.82;;;;;;;9.76;100.00;96426.69;1029643;28;20829;-64
2021/09/21 00:14:32;;;;;;;14.85;10.32;;;;;;;9.75;100.00;96424.28;1022386;28;20535;-64
2021/09/21 00:15:03;;;;;;;14.85;10.02;;;;;;;9.68;100.00;96420.00;1022641;28;20266;-64
2021/09/21 00:15:33;;;;;;;12.25;9.82;;;;;;;9.74;100.00;96422.72;1020790;28;20563;-63
2021/09/21 00:16:04;;;;;;;12.32;10.10;;;;;;;9.70;100.00;96419.00;1028432;28;20150;-63
2021/09/21 00:16:35;;;;;;;12.90;10.40;;;;;;;9.71;100.00;96423.19;1028012;28;20031;-64
2021/09/21 00:17:05;;;;;;;12.23;10.35;;;;;;;9.68;100.00;96425.25;1030348;28;20265;-64
2021/09/21 00:17:36;;;;;;;14.18;10.50;;;;;;;9.68;100.00;96420.00;1035206;28;20026;-63
2021/09/21 00:18:09;;;;;;;11.70;9.95;;;;;;;9.64;100.00;96418.91;1039259;28;20025;-64
2021/09/21 00:18:39;;;;;;;14.20;10.43;;;;;;;9.65;100.00;96423.09;1031008;28;20262;-64
2021/09/21 00:19:09;;;;;;;12.25;10.15;;;;;;;9.65;100.00;96423.09;1022571;28;20526;-65
2021/09/21 00:19:40;;;;;;;12.90;10.80;;;;;;;9.64;100.00;96424.13;1018708;29;20028;-64
2021/09/21 00:20:11;;;;;;;20.05;11.32;;;;;;;9.64;100.00;96432.00;1023339;28;20082;-64
2021/09/21 00:20:41;;;;;;;15.65;10.85;;;;;;;9.58;100.00;96416.44;1026823;28;20102;-64
2021/09/21 00:21:12;;;;;;;15.48;10.38;;;;;;;9.65;100.00;96424.94;1026147;28;20887;-62
2021/09/21 00:21:43;;;;;;;12.85;10.63;;;;;;;9.63;100.00;96427.00;1022349;29;20147;-62
2021/09/21 00:22:13;;;;;;;13.43;10.05;;;;;;;9.55;100.00;96415.09;1023391;28;20031;-64
2021/09/21 00:22:44;;;;;;;13.55;10.57;;;;;;;9.64;100.00;96428.59;1025902;28;20023;-63
2021/09/21 00:23:14;;;;;;;14.25;10.68;;;;;;;9.63;100.00;96430.44;1031007;28;20019;-64
2021/09/21 00:23:44;;;;;;;14.00;11.00;;;;;;;9.64;100.00;96426.75;1032414;28;20010;-63
2021/09/21 00:24:15;;;;;;;12.60;11.00;;;;;;;9.63;100.00;96425.19;1031126;28;20019;-64
2021/09/21 00:24:45;;;;;;;14.95;11.02;;;;;;;9.65;100.00;96425.72;1034557;28;20010;-62
2021/09/21 00:25:16;;;;;;;15.45;11.07;;;;;;;9.61;100.00;96422.00;1035172;28;20021;-64
2021/09/21 00:25:46;;;;;;;13.90;10.02;;;;;;;9.64;100.00;96429.38;1026296;28;20011;-63
2021/09/21 00:26:17;;;;;;;13.05;10.18;;;;;;;9.63;100.00;96427.00;1023159;29;20038;-64
2021/09/21 00:26:48;;;;;;;15.27;10.68;;;;;;;9.67;100.00;96428.13;1027900;28;20059;-65
2021/09/21 00:27:18;;;;;;;14.60;10.63;;;;;;;9.67;100.00;96428.13;1035071;28;20471;-64
2021/09/21 00:27:49;;;;;;;14.95;11.35;;;;;;;9.67;100.00;96422.88;1033010;28;20026;-64
2021/09/21 00:28:19;;;;;;;13.77;10.35;;;;;;;9.62;100.00;96413.13;1035186;28;20026;-64
2021/09/21 00:28:49;;;;;;;20.55;11.38;;;;;;;9.71;100.00;96423.19;1038408;28;20044;-63
2021/09/21 00:29:20;;;;;;;15.40;10.93;;;;;;;9.72;100.00;96428.19;1030834;28;20053;-62
2021/09/21 00:29:51;;;;;;;15.00;11.85;;;;;;;9.74;100.00;96426.13;1024121;28;20039;-64
2021/09/21 00:30:22;;;;;;;16.15;11.35;;;;;;;9.76;100.00;96424.06;1028182;28;20022;-64
2021/09/21 00:30:53;;;;;;;13.50;10.77;;;;;;;9.76;100.00;96424.06;1028185;28;20676;-64
2021/09/21 00:31:23;;;;;;;15.75;11.75;;;;;;;9.79;100.00;96426.22;1030561;28;20320;-62
2021/09/21 00:32:00;;;;;;;14.07;11.55;;;;;;;9.81;100.00;96424.13;1034955;28;20026;-64
2021/09/21 00:32:31;;;;;;;13.60;11.63;;;;;;;9.78;100.00;96421.19;1034860;28;20439;-65
2021/09/21 00:33:03;;;;;;;15.25;11.02;;;;;;;9.83;100.00;96422.06;1027872;28;20266;-61
2021/09/21 00:33:48;;;;;;;15.38;11.80;;;;;;;9.83;100.00;96427.31;1025329;28;20313;-64
2021/09/21 00:34:19;;;;;;;15.85;11.43;;;;;;;9.86;100.00;96423.41;1022939;28;20279;-65
2021/09/21 00:34:49;;;;;;;12.23;10.10;;;;;;;9.84;100.00;96423.66;1022853;29;20270;-63
2021/09/21 00:35:20;;;;;;;14.90;10.95;;;;;;;9.85;100.00;96424.44;1023388;28;20039;-64
2021/09/21 00:35:51;;;;;;;14.48;11.35;;;;;;;9.86;100.00;96423.41;1022411;28;20588;-63
2021/09/21 00:36:22;;;;;;;14.48;10.95;;;;;;;9.86;100.00;96420.81;1034909;28;20025;-64
2021/09/21 00:36:52;;;;;;;20.40;11.82;;;;;;;9.85;100.00;96419.97;1030719;28;20938;-63
2021/09/21 00:37:22;;;;;;;13.50;11.00;;;;;;;9.88;100.00;96429.19;1027424;28;20469;-62
2021/09/21 00:37:53;;;;;;;15.23;11.55;;;;;;;9.86;100.00;96426.03;1026065;28;20023;-63
2021/09/21 00:38:23;;;;;;;14.20;11.00;;;;;;;9.89;100.00;96425.53;1031195;28;20026;-63
2021/09/21 00:38:54;;;;;;;13.57;10.88;;;;;;;9.90;100.00;96430.56;1030925;28;20073;-64
2021/09/21 00:39:24;;;;;;;13.00;10.45;;;;;;;9.92;100.00;96425.06;1031100;28;20471;-63
2021/09/21 00:39:55;;;;;;;13.82;10.90;;;;;;;9.86;100.00;96415.56;1029534;28;20911;-64
2021/09/21 00:40:25;;;;;;;11.75;10.55;;;;;;;9.89;100.00;96425.53;1027130;28;20031;-64
2021/09/21 00:40:56;;;;;;;14.07;10.45;;;;;;;9.94;100.00;96425.63;1023399;28;20035;-64
2021/09/21 00:41:27;;;;;;;21.45;12.32;;;;;;;9.95;100.00;96429.81;1022347;28;20038;-64
2021/09/21 00:41:57;;;;;;;13.25;11.00;;;;;;;9.96;100.00;96431.44;1023158;28;20015;-64
2021/09/21 00:42:28;;;;;;;11.90;9.65;;;;;;;9.96;100.00;96431.44;1027441;28;20038;-64
2021/09/21 00:43:02;;;;;;;19.63;11.25;;;;;;;9.99;100.00;96428.31;1026862;28;20026;-64
2021/09/21 00:43:35;;;;;;;24.17;10.43;;;;;;;10.01;100.00;96425.44;1031762;28;20285;-64
2021/09/21 00:44:06;;;;;;;16.65;10.35;;;;;;;10.03;100.00;96434.66;1032890;28;20261;-64
2021/09/21 00:44:37;;;;;;;15.38;10.82;;;;;;;10.01;100.00;96428.06;1036489;28;20261;-64
2021/09/21 00:45:11;;;;;;;12.85;10.40;;;;;;;10.00;100.00;96432.53;1039017;28;20056;-64
2021/09/21 00:45:42;;;;;;;11.18;9.93;;;;;;;10.00;100.00;96427.28;1034488;28;20372;-64
2021/09/21 00:46:12;;;;;;;11.73;9.65;;;;;;;10.01;100.00;96428.88;1035550;28;20273;-64
2021/09/21 00:46:43;;;;;;;16.58;10.10;;;;;;;10.02;100.00;96433.06;1027287;28;20119;-63
2021/09/21 00:47:13;;;;;;;12.18;10.73;;;;;;;10.06;100.00;96428.13;1027074;28;20856;-65
2021/09/21 00:47:44;;;;;;;16.20;11.07;;;;;;;10.09;100.00;96432.88;1023483;29;20130;-63
2021/09/21 00:48:14;;;;;;;14.68;10.27;;;;;;;10.08;100.00;96432.09;1034520;28;20069;-64
2021/09/21 00:48:45;;;;;;;14.38;10.77;;;;;;;10.12;100.00;96435.81;1031164;28;20034;-64
2021/09/21 00:49:16;;;;;;;16.33;10.75;;;;;;;10.10;100.00;96432.66;1029108;28;20495;-64
2021/09/21 00:49:46;;;;;;;12.45;9.77;;;;;;;10.13;100.00;96437.44;1027288;28;20039;-64
2021/09/21 00:50:17;;;;;;;11.35;9.65;;;;;;;10.15;100.00;96432.72;1024668;28;20039;-64
2021/09/21 00:50:48;;;;;;;13.70;10.48;;;;;;;10.15;100.00;96434.56;1027683;28;20035;-65
2021/09/21 00:51:20;;;;;;;14.70;10.18;;;;;;;10.16;100.00;96438.78;1026835;28;20026;-63
2021/09/21 00:51:51;;;;;;;11.52;10.05;;;;;;;10.12;100.00;96425.34;1026484;28;20284;-64
2021/09/21 00:52:22;;;;;;;13.10;10.20;;;;;;;10.16;100.00;96428.28;1026851;28;20273;-64
2021/09/21 00:52:54;;;;;;;11.38;9.85;;;;;;;10.17;100.00;96427.25;1023820;28;20019;-64
2021/09/21 00:53:26;;;;;;;15.25;11.25;;;;;;;10.18;100.00;96428.81;1030861;28;20072;-63
2021/09/21 00:53:57;;;;;;;12.18;9.68;;;;;;;10.19;100.00;96427.00;1031118;28;20759;-64
2021/09/21 00:54:27;;;;;;;13.00;10.23;;;;;;;10.17;100.00;96431.69;1022303;28;20270;-64
2021/09/21 00:54:57;;;;;;;11.23;10.02;;;;;;;10.16;100.00;96436.16;1028099;28;20065;-64
2021/09/21 00:55:28;;;;;;;14.10;10.38;;;;;;;10.17;100.00;96426.47;1034963;28;20064;-64
2021/09/21 00:55:59;;;;;;;12.95;10.40;;;;;;;10.15;100.00;96430.09;1039776;28;20445;-64
2021/09/21 00:56:29;;;;;;;11.82;10.48;;;;;;;10.19;100.00;96430.41;1032058;28;20101;-63
2021/09/21 00:56:59;;;;;;;12.88;9.88;;;;;;;10.18;100.00;96428.03;1023215;28;20043;-65
2021/09/21 00:57:30;;;;;;;11.90;10.50;;;;;;;10.13;100.00;96426.16;1022829;28;20421;-64
2021/09/21 00:58:00;;;;;;;13.10;9.68;;;;;;;10.19;100.00;96429.63;1027268;28;20049;-64
2021/09/21 00:58:31;;;;;;;12.63;10.18;;;;;;;10.17;100.00;96431.69;1024153;28;20027;-62
2021/09/21 00:59:02;;;;;;;14.48;10.55;;;;;;;10.11;100.00;96413.25;1033461;28;20030;-64
2021/09/21 00:59:32;;;;;;;13.68;11.10;;;;;;;10.12;100.00;96427.94;1031019;28;20049;-65
2021/09/21 01:00:04;;;;;;;13.20;10.18;;;;;;;10.16;100.00;96420.44;1029462;28;20038;-64
2021/09/21 01:00:35;;;;;;;12.80;10.02;;;;;;;10.19;100.00;96429.63;1026316;28;20694;-64
2021/09/21 01:01:05;;;;;;;12.52;10.45;;;;;;;10.09;100.00;96420.59;1026723;28;20321;-62
2021/09/21 01:01:35;;;;;;;12.75;10.18;;;;;;;10.13;100.00;96429.56;1031627;28;20037;-64
2021/09/21 01:02:06;;;;;;;14.60;10.70;;;;;;;10.13;100.00;96429.56;1026705;28;20035;-63
2021/09/21 01:02:36;;;;;;;13.00;10.98;;;;;;;10.15;100.00;96429.31;1022760;29;20035;-65
2021/09/21 01:03:07;;;;;;;11.45;9.95;;;;;;;10.17;100.00;96431.69;1023334;29;20417;-64
2021/09/21 01:03:38;;;;;;;12.45;10.57;;;;;;;10.15;100.00;96429.31;1022580;28;20114;-64
2021/09/21 01:04:09;;;;;;;13.70;10.57;;;;;;;10.13;100.00;96426.16;1026586;28;20026;-64
2021/09/21 01:04:39;;;;;;;13.30;10.77;;;;;;;10.11;100.00;96434.25;1030246;28;20261;-64
2021/09/21 01:05:10;;;;;;;14.30;10.20;;;;;;;10.14;100.00;96432.97;1022928;28;20035;-64
2021/09/21 01:05:41;;;;;;;12.15;10.55;;;;;;;10.06;100.00;96422.88;1023201;28;20084;-64
2021/09/21 01:06:11;;;;;;;12.98;11.15;;;;;;;10.14;100.00;96430.34;1027865;28;20266;-64
2021/09/21 01:06:42;;;;;;;12.27;10.52;;;;;;;10.14;100.00;96436.38;1034646;28;20030;-65
2021/09/21 01:07:12;;;;;;;14.00;10.23;;;;;;;10.15;100.00;96435.34;1030871;28;20092;-64
2021/09/21 01:07:43;;;;;;;14.98;10.80;;;;;;;10.14;100.00;96431.13;1029561;28;20031;-62
2021/09/21 01:08:13;;;;;;;14.60;10.18;;;;;;;10.12;100.00;96432.41;1031183;28;20129;-64
2021/09/21 01:08:44;;;;;;;12.52;10.60;;;;;;;10.13;100.00;96437.44;1029470;28;20030;-63
2021/09/21 01:09:18;;;;;;;11.90;10.57;;;;;;;10.08;100.00;96428.69;1027095;28;20252;-64
2021/09/21 01:09:59;;;;;;;15.38;11.23;;;;;;;10.11;100.00;96442.09;1027344;28;20528;-63
2021/09/21 01:10:31;;;;;;;13.30;10.35;;;;;;;10.10;100.00;96437.91;1028625;28;20270;-64
2021/09/21 01:11:01;;;;;;;11.48;9.65;;;;;;;10.11;100.00;96430.84;1030298;28;20030;-64
2021/09/21 01:11:32;;;;;;;14.18;10.38;;;;;;;10.08;100.00;96434.72;1025299;28;20823;-64
2021/09/21 01:12:02;;;;;;;13.15;10.45;;;;;;;10.07;100.00;96442.84;1030665;28;20023;-64
2021/09/21 01:12:33;;;;;;;13.20;11.10;;;;;;;10.03;100.00;96432.03;1031613;28;20014;-64
2021/09/21 01:13:03;;;;;;;12.82;10.25;;;;;;;10.06;100.00;96436.81;1034383;28;20065;-63
2021/09/21 01:13:34;;;;;;;14.18;9.57;;;;;;;10.08;100.00;96442.59;1040808;28;20392;-64
2021/09/21 01:14:04;;;;;;;14.52;10.88;;;;;;;10.07;100.00;96438.38;1034958;28;20033;-63
2021/09/21 01:14:35;;;;;;;17.20;11.00;;;;;;;10.04;100.00;96428.38;1029024;28;20049;-64
2021/09/21 01:15:06;;;;;;;15.63;11.07;;;;;;;10.11;100.00;96434.25;1036891;28;20076;-64
2021/09/21 01:15:36;;;;;;;14.35;10.25;;;;;;;10.12;100.00;96433.19;1039037;28;20014;-64
2021/09/21 01:16:07;;;;;;;12.23;9.90;;;;;;;10.11;100.00;96433.44;1043205;28;20290;-65
2021/09/21 01:16:37;;;;;;;12.57;10.68;;;;;;;10.12;100.00;96437.66;1033615;28;20060;-63
2021/09/21 01:17:08;;;;;;;12.38;10.63;;;;;;;10.11;100.00;96433.44;1034789;28;20432;-64
2021/09/21 01:17:38;;;;;;;14.05;11.43;;;;;;;10.10;100.00;96430.03;1033654;28;20018;-63
2021/09/21 01:18:09;;;;;;;13.30;10.10;;;;;;;10.14;100.00;96438.22;1027194;28;20023;-64
2021/09/21 01:18:39;;;;;;;18.10;11.27;;;;;;;10.14;100.00;96439.00;1034631;28;20675;-63
2021/09/21 01:19:11;;;;;;;14.88;10.68;;;;;;;10.14;100.00;96433.75;1031303;28;20392;-64
2021/09/21 01:19:42;;;;;;;12.60;10.85;;;;;;;10.14;100.00;96436.38;1034257;28;20069;-64
2021/09/21 01:20:13;;;;;;;12.90;10.52;;;;;;;10.11;100.00;96423.75;1034988;28;21079;-64
2021/09/21 01:20:43;;;;;;;11.88;10.10;;;;;;;10.15;100.00;96429.31;1027388;28;20102;-63
2021/09/21 01:21:14;;;;;;;12.68;10.20;;;;;;;10.15;100.00;96429.31;1028207;28;20038;-63
2021/09/21 01:21:45;;;;;;;12.63;10.75;;;;;;;10.14;100.00;96432.97;1025744;28;20011;-63
2021/09/21 01:22:15;;;;;;;15.40;10.85;;;;;;;10.12;100.00;96420.09;1019322;29;20094;-64
2021/09/21 01:22:46;;;;;;;12.10;10.57;;;;;;;10.19;100.00;96435.66;1025815;28;20274;-64
2021/09/21 01:23:16;;;;;;;12.00;10.48;;;;;;;10.10;100.00;96427.41;1025297;28;20027;-64
2021/09/21 01:23:54;;;;;;;14.25;10.60;;;;;;;10.16;100.00;96433.53;1029567;28;20037;-64
2021/09/21 01:24:24;;;;;;;12.05;10.85;;;;;;;10.18;100.00;96438.53;1025471;28;20035;-63
2021/09/21 01:24:55;;;;;;;17.58;10.85;;;;;;;10.18;100.00;96439.31;1029620;28;20306;-64
2021/09/21 01:25:25;;;;;;;12.18;10.32;;;;;;;10.14;100.00;96433.75;1029013;28;20038;-64
2021/09/21 01:25:56;;;;;;;15.90;11.02;;;;;;;10.05;100.00;96429.97;1029866;28;20014;-64
2021/09/21 01:26:26;;;;;;;13.60;10.63;;;;;;;10.14;100.00;96436.38;1032292;28;20029;-65
2021/09/21 01:26:59;;;;;;;15.85;11.32;;;;;;;10.14;100.00;96439.00;1037577;28;20021;-64
2021/09/21 01:27:30;;;;;;;14.90;10.25;;;;;;;10.14;100.00;96438.22;1035335;28;20887;-64
2021/09/21 01:28:00;;;;;;;13.82;10.23;;;;;;;10.12;100.00;96435.81;1033667;28;20806;-64
2021/09/21 01:28:31;;;;;;;12.55;10.10;;;;;;;10.05;100.00;96427.34;1037519;28;20029;-63
2021/09/21 01:29:01;;;;;;;13.02;10.40;;;;;;;10.09;100.00;96431.09;1034898;28;20571;-64
2021/09/21 01:29:32;;;;;;;14.27;10.60;;;;;;;10.09;100.00;96425.03;1026820;28;20497;-63
2021/09/21 01:30:04;;;;;;;14.63;10.82;;;;;;;10.14;100.00;96438.22;1026269;28;20053;-62
2021/09/21 01:30:34;;;;;;;13.52;10.82;;;;;;;10.13;100.00;96440.06;1027107;28;20039;-65
2021/09/21 01:31:05;;;;;;;14.63;10.48;;;;;;;10.10;100.00;96427.41;1030377;28;20277;-63
2021/09/21 01:31:35;;;;;;;11.98;10.55;;;;;;;10.14;100.00;96435.59;1023774;28;20034;-65
2021/09/21 01:32:06;;;;;;;14.48;10.85;;;;;;;10.09;100.00;96427.66;1026667;28;20041;-63
2021/09/21 01:32:36;;;;;;;12.88;10.80;;;;;;;10.18;100.00;96428.03;1030599;28;20107;-64
2021/09/21 01:33:07;;;;;;;14.60;10.88;;;;;;;10.20;100.00;96436.47;1033791;28;20034;-64
2021/09/21 01:33:37;;;;;;;14.25;10.98;;;;;;;10.20;100.00;96431.22;1032720;28;20085;-64
2021/09/21 01:34:08;;;;;;;13.57;11.55;;;;;;;10.15;100.00;96432.72;1034396;28;20056;-64
2021/09/21 01:34:38;;;;;;;12.15;10.63;;;;;;;10.17;100.00;96434.31;1030955;28;20037;-65
2021/09/21 01:35:09;;;;;;;11.77;10.07;;;;;;;10.12;100.00;96430.56;1026564;28;20086;-63
2021/09/21 01:35:40;;;;;;;12.73;10.70;;;;;;;10.14;100.00;96436.38;1023143;29;20028;-64
2021/09/21 01:36:10;;;;;;;13.15;10.55;;;;;;;10.07;100.00;96422.66;1023711;28;20031;-64
2021/09/21 01:36:41;;;;;;;13.27;10.30;;;;;;;10.10;100.00;96432.66;1031079;28;20041;-64
2021/09/21 01:37:13;;;;;;;14.80;10.75;;;;;;;10.13;100.00;96437.44;1028976;28;20389;-64
2021/09/21 01:37:46;;;;;;;13.63;10.75;;;;;;;10.14;100.00;96432.97;1033855;28;20510;-62
2021/09/21 01:38:17;;;;;;;14.88;10.68;;;;;;;10.13;100.00;96434.00;1033928;28;20376;-64
2021/09/21 01:38:47;;;;;;;13.32;10.63;;;;;;;10.07;100.00;96421.88;1032128;28;20285;-64
2021/09/21 01:39:18;;;;;;;11.30;9.93;;;;;;;10.12;100.00;96435.81;1027334;28;20037;-64
2021/09/21 01:39:48;;;;;;;13.55;10.20;;;;;;;10.12;100.00;96429.78;1027468;28;20516;-64
2021/09/21 01:40:19;;;;;;;13.52;11.15;;;;;;;10.06;100.00;96431.56;1022088;28;20626;-64
2021/09/21 01:40:49;;;;;;;15.38;11.57;;;;;;;10.11;100.00;96436.88;1019068;28;20057;-64
2021/09/21 01:41:20;;;;;;;14.15;10.82;;;;;;;10.11;100.00;96438.69;1022009;28;20039;-64
2021/09/21 01:41:50;;;;;;;12.65;10.38;;;;;;;9.99;100.00;96420.44;1022837;28;20098;-64
2021/09/21 01:42:20;;;;;;;12.60;10.38;;;;;;;10.09;100.00;96433.72;1025538;28;20439;-64
2021/09/21 01:42:51;;;;;;;13.00;10.65;;;;;;;10.11;100.00;96433.44;1029495;28;20423;-64
2021/09/21 01:43:21;;;;;;;12.90;10.80;;;;;;;10.08;100.00;96428.69;1027953;28;20022;-63
2021/09/21 01:43:52;;;;;;;13.15;10.63;;;;;;;10.13;100.00;96426.94;1021652;28;20420;-64
2021/09/21 01:44:22;;;;;;;14.57;9.95;;;;;;;10.05;100.00;96416.06;1025218;28;20034;-63
2021/09/21 01:44:53;;;;;;;14.55;10.15;;;;;;;10.14;100.00;96427.72;1027031;28;20489;-64
2021/09/21 01:45:23;;;;;;;18.02;10.60;;;;;;;10.14;100.00;96433.75;1024642;28;20030;-62
2021/09/21 01:45:54;;;;;;;15.30;11.02;;;;;;;10.16;100.00;96436.16;1028028;28;20033;-64
2021/09/21 01:46:30;;;;;;;13.60;10.40;;;;;;;10.11;100.00;96415.88;1033100;28;20022;-64
2021/09/21 01:47:03;;;;;;;12.73;10.05;;;;;;;10.18;100.00;96439.31;1038906;28;20252;-64
2021/09/21 01:47:34;;;;;;;14.20;11.35;;;;;;;10.16;100.00;96430.91;1036272;28;20108;-64
2021/09/21 01:48:05;;;;;;;12.60;10.45;;;;;;;10.14;100.00;96428.50;1033763;28;20257;-64
2021/09/21 01:48:35;;;;;;;13.52;10.40;;;;;;;10.18;100.00;96433.28;1025338;28;20262;-64
2021/09/21 01:49:06;;;;;;;13.98;10.60;;;;;;;10.15;100.00;96432.72;1026557;28;20090;-63
2021/09/21 01:49:58;;;;;;;12.27;10.77;;;;;;;10.15;100.00;96430.09;1025891;28;20043;-64
2021/09/21 01:51:02;;;;;;;13.95;10.07;;;;;;;10.19;100.00;96429.63;1034818;28;20267;-64
2021/09/21 01:51:38;;;;;;;12.23;10.10;;;;;;;10.18;100.00;96433.28;1026711;28;20034;-63
2021/09/21 01:52:16;;;;;;;14.35;10.63;;;;;;;10.17;100.00;96431.69;1027702;28;20274;-63
2021/09/21 01:53:06;;;;;;;11.77;10.23;;;;;;;10.19;100.00;96438.28;1025955;28;21125;-64
2021/09/21 01:53:58;;;;;;;13.43;10.35;;;;;;;10.14;100.00;96417.25;1026581;28;20294;-64
2021/09/21 01:54:47;;;;;;;12.27;10.07;;;;;;;10.17;100.00;96432.50;1028377;28;20085;-64
2021/09/21 01:59:05;;;;;;;11.90;10.10;;;;;;;10.11;100.00;96439.50;1033104;28;20886;-64
2021/09/21 01:59:36;;;;;;;14.43;10.68;;;;;;;10.11;100.00;96443.94;1030005;28;20266;-64
2021/09/21 02:00:07;;;;;;;12.65;10.50;;;;;;;10.14;100.00;96443.47;1033426;28;20325;-64
2021/09/21 02:00:37;;;;;;;14.52;9.82;;;;;;;10.14;100.00;96448.72;1032852;28;20034;-64
2021/09/21 02:01:08;;;;;;;13.27;10.80;;;;;;;10.14;100.00;96449.50;1030538;28;20281;-64
2021/09/21 02:01:38;;;;;;;13.60;11.40;;;;;;;10.14;100.00;96444.25;1029357;28;20142;-64
2021/09/21 02:02:09;;;;;;;14.35;11.10;;;;;;;10.18;100.00;96446.41;1030457;28;20225;-64
2021/09/21 02:02:39;;;;;;;14.38;11.02;;;;;;;10.19;100.00;96447.97;1028757;28;20042;-64
2021/09/21 02:03:10;;;;;;;11.55;10.00;;;;;;;10.17;100.00;96450.06;1031443;28;20443;-64
2021/09/21 02:03:40;;;;;;;14.32;11.35;;;;;;;10.15;100.00;96451.06;1034078;28;20400;-64
2021/09/21 02:04:11;;;;;;;13.93;10.50;;;;;;;10.15;100.00;96445.03;1033712;28;20633;-64
2021/09/21 02:04:41;;;;;;;14.93;10.88;;;;;;;10.13;100.00;96442.66;1026469;28;20022;-61
2021/09/21 02:05:12;;;;;;;12.05;10.15;;;;;;;10.17;100.00;96448.22;1026453;28;20138;-64
2021/09/21 02:05:46;;;;;;;12.95;11.15;;;;;;;10.17;100.00;96444.81;1022332;29;20118;-65
2021/09/21 02:06:16;;;;;;;11.43;10.18;;;;;;;10.17;100.00;96442.97;1015002;29;20032;-64
2021/09/21 02:06:47;;;;;;;12.73;10.27;;;;;;;10.21;100.00;96443.28;1022731;28;21067;-62
2021/09/21 02:07:17;;;;;;;12.63;10.15;;;;;;;10.23;100.00;96446.44;1026671;28;20508;-64
2021/09/21 02:07:48;;;;;;;13.73;11.25;;;;;;;10.22;100.00;96448.28;1026339;28;20031;-64
2021/09/21 02:08:18;;;;;;;14.45;10.98;;;;;;;10.21;100.00;96444.06;1022504;28;20035;-64
2021/09/21 02:08:49;;;;;;;11.40;10.00;;;;;;;10.21;100.00;96438.03;1018661;28;20689;-63
2021/09/21 02:09:20;;;;;;;14.40;10.13;;;;;;;10.20;100.00;96446.97;1030403;28;20025;-64
2021/09/21 02:09:50;;;;;;;13.32;10.85;;;;;;;10.19;100.00;96450.59;1026615;28;20050;-64
2021/09/21 02:10:21;;;;;;;13.32;10.75;;;;;;;10.21;100.00;96443.28;1030714;28;20595;-63
2021/09/21 02:10:51;;;;;;;12.45;10.77;;;;;;;10.23;100.00;96436.78;1030337;28;20045;-64
2021/09/21 02:11:21;;;;;;;15.20;10.98;;;;;;;10.26;100.00;96446.00;1026084;28;20526;-64
2021/09/21 02:11:52;;;;;;;12.63;10.70;;;;;;;10.24;100.00;96435.72;1030396;28;20392;-62
2021/09/21 02:12:22;;;;;;;13.23;9.95;;;;;;;10.22;100.00;96439.63;1022113;28;20050;-63
2021/09/21 02:12:53;;;;;;;12.95;10.65;;;;;;;10.20;100.00;96442.50;1023033;28;20019;-64
2021/09/21 02:13:23;;;;;;;12.45;10.60;;;;;;;10.23;100.00;96446.44;1025823;28;20042;-63
2021/09/21 02:13:57;;;;;;;14.32;10.60;;;;;;;10.22;100.00;96445.66;1026670;28;20045;-64
2021/09/21 02:14:27;;;;;;;14.40;10.02;;;;;;;10.14;100.00;96435.59;1034705;28;20022;-64
2021/09/21 02:15:00;;;;;;;11.52;10.25;;;;;;;10.24;100.00;96443.59;1035319;28;20256;-65
2021/09/21 02:15:31;;;;;;;13.88;11.57;;;;;;;10.21;100.00;96430.19;1032675;28;20419;-64
2021/09/21 02:16:04;;;;;;;13.38;10.57;;;;;;;10.25;100.00;96444.38;1035112;28;20636;-64
2021/09/21 02:16:35;;;;;;;13.38;11.23;;;;;;;10.19;100.00;96434.84;1024067;28;21568;-64
2021/09/21 02:17:05;;;;;;;14.25;10.70;;;;;;;10.22;100.00;96440.41;1022196;29;20839;-64
2021/09/21 02:17:36;;;;;;;13.10;10.40;;;;;;;10.27;100.00;96440.53;1018670;29;20394;-64
2021/09/21 02:18:07;;;;;;;12.70;10.55;;;;;;;10.28;100.00;96449.19;1022570;28;20020;-62
2021/09/21 02:18:37;;;;;;;12.40;10.70;;;;;;;10.27;100.00;96442.34;1026886;28;20274;-64
2021/09/21 02:19:08;;;;;;;13.68;10.85;;;;;;;10.28;100.00;96438.69;1034395;28;20256;-64
2021/09/21 02:19:41;;;;;;;13.85;11.07;;;;;;;10.28;100.00;96444.72;1030898;28;20034;-64
2021/09/21 02:20:12;;;;;;;14.02;11.10;;;;;;;10.27;100.00;96447.59;1030356;28;20026;-64
2021/09/21 02:20:42;;;;;;;14.00;10.35;;;;;;;10.24;100.00;96442.81;1027475;28;20374;-63
2021/09/21 02:21:13;;;;;;;12.93;10.25;;;;;;;10.24;100.00;96448.06;1030120;28;20680;-64
2021/09/21 02:21:43;;;;;;;13.38;10.88;;;;;;;10.24;100.00;96453.31;1030537;28;20524;-64
2021/09/21 02:22:14;;;;;;;12.70;10.20;;;;;;;10.23;100.00;96449.88;1026282;28;20073;-65
2021/09/21 02:22:44;;;;;;;13.98;11.75;;;;;;;10.13;100.00;96442.66;1026351;28;20027;-65
2021/09/21 02:23:15;;;;;;;13.45;11.45;;;;;;;10.20;100.00;96458.22;1034586;28;20052;-62
2021/09/21 02:23:45;;;;;;;13.10;10.73;;;;;;;10.15;100.00;96461.56;1034554;28;20725;-64
2021/09/21 02:24:20;;;;;;;12.85;10.85;;;;;;;10.19;100.00;96455.84;1025750;28;20014;-64
2021/09/21 02:24:50;;;;;;;12.63;10.43;;;;;;;10.18;100.00;96459.50;1030741;28;20034;-65
2021/09/21 02:25:21;;;;;;;12.77;10.50;;;;;;;10.12;100.00;96446.31;1026534;28;20628;-63
2021/09/21 02:25:51;;;;;;;13.40;11.43;;;;;;;10.17;100.00;96463.16;1027070;28;20023;-64
2021/09/21 02:26:22;;;;;;;12.90;10.30;;;;;;;10.18;100.00;96462.13;1030491;28;20018;-63
2021/09/21 02:26:52;;;;;;;12.20;10.52;;;;;;;10.13;100.00;96455.78;1026770;28;20420;-64